PWSweather.com
Personal Weather Stations
Station Observations
WATERF01
WaterfordIE

WaterfordIE

Lat: 52.2412507, Lon: -7.1414691

Elevation: 65

Station Type: Davis Vantage Vue

www.waterfordweather.com

High Low Average
Temperature 49.8°F9.9°C 36.2°F2.3°C 46.3°F7.9°C
Dew Point 49.7°F9.8°C 36.2°F2.3°C 44.9°F7.2°C
Winds 19.6 mph 31.5 kmh Calm Calm 12.0 mph SSE19.3 kmh SSE
Wind Gusts 33.4 mph53.8 kmh -- 18.0 mph29.0 kmh
Humidity 100% 88% 95%
Pressure 30.26 in1024.7 mb 29.85 in1010.8 mb -
Precipitation 0.17 in4.3 mm - -
Hour Temp Dew Point Humidity Winds Wind Gusts Pressure Precip Precip Rate Daily Precip Total
12:00 AM 36.2°F2.3°C 36.2°F2.3°C 100% Calm Calm -- 30.26 in1024.7 mb - 0.00 in0.0 mm 0.00 in0.0 mm
12:10 AM 36.4°F2.4°C 36.4°F2.4°C 100% 1.2 mph E1.9 kmh E 2.3 mph3.7 kmh 30.25 in1024.4 mb - 0.00 in0.0 mm 0.00 in0.0 mm
12:20 AM 36.5°F2.5°C 36.5°F2.5°C 100% 1.2 mph E1.9 kmh E 2.3 mph3.7 kmh 30.25 in1024.4 mb - 0.00 in0.0 mm 0.00 in0.0 mm
12:30 AM 36.6°F2.6°C 36.6°F2.6°C 100% Calm Calm -- 30.25 in1024.4 mb - 0.00 in0.0 mm 0.00 in0.0 mm
12:40 AM 36.8°F2.7°C 36.8°F2.7°C 100% Calm Calm -- 30.24 in1024.0 mb - 0.00 in0.0 mm 0.00 in0.0 mm
12:50 AM 36.8°F2.7°C 36.8°F2.7°C 100% Calm Calm -- 30.24 in1024.0 mb - 0.00 in0.0 mm 0.00 in0.0 mm
01:00 AM 37.0°F2.8°C 37.0°F2.8°C 100% Calm Calm -- 30.25 in1024.4 mb - 0.00 in0.0 mm 0.00 in0.0 mm
01:10 AM 37.3°F2.9°C 37.3°F2.9°C 100% Calm Calm -- 30.25 in1024.4 mb - 0.00 in0.0 mm 0.00 in0.0 mm
01:20 AM 37.5°F3.1°C 37.5°F3.1°C 100% Calm Calm -- 30.24 in1024.0 mb - 0.00 in0.0 mm 0.00 in0.0 mm
01:30 AM 37.6°F3.1°C 37.6°F3.1°C 100% Calm Calm -- 30.24 in1024.0 mb - 0.00 in0.0 mm 0.00 in0.0 mm
01:40 AM 37.6°F3.1°C 37.6°F3.1°C 100% Calm Calm -- 30.23 in1023.7 mb - 0.00 in0.0 mm 0.00 in0.0 mm
01:50 AM 37.8°F3.2°C 37.8°F3.2°C 100% Calm Calm -- 30.23 in1023.7 mb - 0.00 in0.0 mm 0.00 in0.0 mm
02:00 AM 37.9°F3.3°C 37.9°F3.3°C 100% Calm Calm -- 30.22 in1023.4 mb - 0.00 in0.0 mm 0.00 in0.0 mm
02:10 AM 38.4°F3.6°C 38.4°F3.6°C 100% Calm Calm -- 30.22 in1023.4 mb - 0.00 in0.0 mm 0.00 in0.0 mm
02:20 AM 38.9°F3.8°C 38.9°F3.8°C 100% 1.2 mph SE1.9 kmh SE 4.6 mph7.4 kmh 30.22 in1023.4 mb - 0.00 in0.0 mm 0.00 in0.0 mm
02:30 AM 41.2°F5.1°C 41.2°F5.1°C 100% 8.1 mph S13.0 kmh S 11.5 mph18.5 kmh 30.21 in1023.0 mb - 0.00 in0.0 mm 0.00 in0.0 mm
02:40 AM 42.0°F5.6°C 42.0°F5.6°C 100% 5.8 mph S9.3 kmh S 12.7 mph20.4 kmh 30.22 in1023.4 mb - 0.00 in0.0 mm 0.00 in0.0 mm
02:50 AM 42.3°F5.7°C 42.0°F5.6°C 99% 5.8 mph SSE9.3 kmh SSE 9.2 mph14.8 kmh 30.22 in1023.4 mb - 0.00 in0.0 mm 0.00 in0.0 mm
03:00 AM 42.4°F5.8°C 42.1°F5.6°C 99% 5.8 mph S9.3 kmh S 8.1 mph13.0 kmh 30.21 in1023.0 mb - 0.00 in0.0 mm 0.00 in0.0 mm
03:10 AM 42.5°F5.8°C 42.0°F5.6°C 98% 5.8 mph SSE9.3 kmh SSE 11.5 mph18.5 kmh 30.21 in1023.0 mb - 0.00 in0.0 mm 0.00 in0.0 mm
03:20 AM 42.7°F5.9°C 42.4°F5.8°C 99% 4.6 mph S7.4 kmh S 5.8 mph9.3 kmh 30.21 in1023.0 mb - 0.00 in0.0 mm 0.00 in0.0 mm
03:30 AM 42.8°F6.0°C 42.5°F5.8°C 99% 6.9 mph SSE11.1 kmh SSE 8.1 mph13.0 kmh 30.20 in1022.7 mb - 0.00 in0.0 mm 0.00 in0.0 mm
03:40 AM 42.8°F6.0°C 42.3°F5.7°C 98% 5.8 mph SSE9.3 kmh SSE 8.1 mph13.0 kmh 30.20 in1022.7 mb - 0.00 in0.0 mm 0.00 in0.0 mm
03:50 AM 42.9°F6.1°C 41.8°F5.4°C 96% 6.9 mph S11.1 kmh S 8.1 mph13.0 kmh 30.20 in1022.7 mb - 0.00 in0.0 mm 0.00 in0.0 mm
04:00 AM 43.0°F6.1°C 41.9°F5.5°C 96% 6.9 mph S11.1 kmh S 9.2 mph14.8 kmh 30.19 in1022.4 mb - 0.00 in0.0 mm 0.00 in0.0 mm
04:10 AM 43.1°F6.2°C 41.2°F5.1°C 93% 9.2 mph S14.8 kmh S 11.5 mph18.5 kmh 30.19 in1022.4 mb - 0.00 in0.0 mm 0.00 in0.0 mm
04:20 AM 43.6°F6.4°C 41.7°F5.4°C 93% 9.2 mph SSE14.8 kmh SSE 16.1 mph25.9 kmh 30.18 in1022.0 mb - 0.00 in0.0 mm 0.00 in0.0 mm
04:30 AM 43.7°F6.5°C 41.8°F5.4°C 93% 8.1 mph SSE13.0 kmh SSE 12.7 mph20.4 kmh 30.18 in1022.0 mb - 0.00 in0.0 mm 0.00 in0.0 mm
04:40 AM 43.9°F6.6°C 42.0°F5.6°C 93% 9.2 mph SSE14.8 kmh SSE 12.7 mph20.4 kmh 30.18 in1022.0 mb - 0.00 in0.0 mm 0.00 in0.0 mm
04:50 AM 44.1°F6.7°C 42.5°F5.8°C 94% 6.9 mph SSE11.1 kmh SSE 9.2 mph14.8 kmh 30.18 in1022.0 mb - 0.00 in0.0 mm 0.00 in0.0 mm
05:00 AM 44.0°F6.7°C 42.4°F5.8°C 94% 6.9 mph S11.1 kmh S 8.1 mph13.0 kmh 30.18 in1022.0 mb - 0.00 in0.0 mm 0.00 in0.0 mm
05:10 AM 44.2°F6.8°C 42.3°F5.7°C 93% 10.4 mph S16.7 kmh S 13.8 mph22.2 kmh 30.17 in1021.7 mb - 0.00 in0.0 mm 0.00 in0.0 mm
05:20 AM 44.6°F7.0°C 43.0°F6.1°C 94% 8.1 mph S13.0 kmh S 13.8 mph22.2 kmh 30.18 in1022.0 mb - 0.00 in0.0 mm 0.00 in0.0 mm
05:30 AM 44.7°F7.1°C 42.8°F6.0°C 93% 9.2 mph S14.8 kmh S 12.7 mph20.4 kmh 30.18 in1022.0 mb - 0.00 in0.0 mm 0.00 in0.0 mm
05:40 AM 45.0°F7.2°C 43.1°F6.2°C 93% 6.9 mph S11.1 kmh S 13.8 mph22.2 kmh 30.17 in1021.7 mb - 0.00 in0.0 mm 0.00 in0.0 mm
05:50 AM 45.1°F7.3°C 43.2°F6.2°C 93% 9.2 mph S14.8 kmh S 13.8 mph22.2 kmh 30.17 in1021.7 mb - 0.00 in0.0 mm 0.00 in0.0 mm
06:00 AM 45.2°F7.3°C 43.3°F6.3°C 93% 9.2 mph SSE14.8 kmh SSE 13.8 mph22.2 kmh 30.17 in1021.7 mb - 0.00 in0.0 mm 0.00 in0.0 mm
06:10 AM 45.4°F7.4°C 43.5°F6.4°C 93% 6.9 mph S11.1 kmh S 9.2 mph14.8 kmh 30.17 in1021.7 mb - 0.00 in0.0 mm 0.00 in0.0 mm
06:20 AM 45.4°F7.4°C 44.1°F6.7°C 95% 9.2 mph SSE14.8 kmh SSE 12.7 mph20.4 kmh 30.17 in1021.7 mb - 0.00 in0.0 mm 0.00 in0.0 mm
06:30 AM 45.5°F7.5°C 43.8°F6.6°C 94% 8.1 mph SSE13.0 kmh SSE 11.5 mph18.5 kmh 30.16 in1021.3 mb - 0.00 in0.0 mm 0.00 in0.0 mm
06:40 AM 45.6°F7.6°C 44.0°F6.7°C 94% 10.4 mph SSE16.7 kmh SSE 15.0 mph24.1 kmh 30.16 in1021.3 mb - 0.00 in0.0 mm 0.00 in0.0 mm
06:50 AM 45.7°F7.6°C 44.1°F6.7°C 94% 10.4 mph S16.7 kmh S 13.8 mph22.2 kmh 30.16 in1021.3 mb - 0.00 in0.0 mm 0.00 in0.0 mm
07:00 AM 45.7°F7.6°C 44.1°F6.7°C 94% 10.4 mph S16.7 kmh S 13.8 mph22.2 kmh 30.16 in1021.3 mb - 0.00 in0.0 mm 0.00 in0.0 mm
07:10 AM 45.9°F7.7°C 44.0°F6.7°C 93% 8.1 mph S13.0 kmh S 11.5 mph18.5 kmh 30.15 in1021.0 mb - 0.00 in0.0 mm 0.00 in0.0 mm
07:20 AM 45.9°F7.7°C 44.0°F6.7°C 93% 10.4 mph S16.7 kmh S 16.1 mph25.9 kmh 30.15 in1021.0 mb - 0.00 in0.0 mm 0.00 in0.0 mm
07:30 AM 46.0°F7.8°C 44.1°F6.7°C 93% 8.1 mph S13.0 kmh S 12.7 mph20.4 kmh 30.15 in1021.0 mb - 0.00 in0.0 mm 0.00 in0.0 mm
07:40 AM 46.1°F7.8°C 44.2°F6.8°C 93% 8.1 mph S13.0 kmh S 13.8 mph22.2 kmh 30.14 in1020.7 mb - 0.00 in0.0 mm 0.00 in0.0 mm
07:50 AM 46.2°F7.9°C 44.3°F6.8°C 93% 10.4 mph S16.7 kmh S 11.5 mph18.5 kmh 30.14 in1020.7 mb - 0.00 in0.0 mm 0.00 in0.0 mm
08:00 AM 46.4°F8.0°C 44.2°F6.8°C 92% 10.4 mph S16.7 kmh S 15.0 mph24.1 kmh 30.14 in1020.7 mb - 0.00 in0.0 mm 0.00 in0.0 mm
08:10 AM 46.7°F8.2°C 44.8°F7.1°C 93% 12.7 mph SSE20.4 kmh SSE 19.6 mph31.5 kmh 30.14 in1020.7 mb - 0.00 in0.0 mm 0.00 in0.0 mm
08:20 AM 46.8°F8.2°C 44.9°F7.2°C 93% 11.5 mph SSE18.5 kmh SSE 13.8 mph22.2 kmh 30.13 in1020.3 mb - 0.00 in0.0 mm 0.00 in0.0 mm
08:30 AM 46.9°F8.3°C 45.3°F7.4°C 94% 11.5 mph S18.5 kmh S 16.1 mph25.9 kmh 30.13 in1020.3 mb - 0.00 in0.0 mm 0.00 in0.0 mm
08:40 AM 47.0°F8.3°C 45.1°F7.3°C 93% 10.4 mph S16.7 kmh S 15.0 mph24.1 kmh 30.13 in1020.3 mb - 0.00 in0.0 mm 0.00 in0.0 mm
08:50 AM 47.1°F8.4°C 45.2°F7.3°C 93% 10.4 mph S16.7 kmh S 15.0 mph24.1 kmh 30.12 in1020.0 mb - 0.00 in0.0 mm 0.00 in0.0 mm
09:00 AM 47.3°F8.5°C 45.4°F7.4°C 93% 13.8 mph SSE22.2 kmh SSE 16.1 mph25.9 kmh 30.12 in1020.0 mb - 0.00 in0.0 mm 0.00 in0.0 mm
09:10 AM 47.3°F8.5°C 45.4°F7.4°C 93% 10.4 mph S16.7 kmh S 12.7 mph20.4 kmh 30.12 in1020.0 mb - 0.00 in0.0 mm 0.00 in0.0 mm
09:20 AM 47.3°F8.5°C 45.4°F7.4°C 93% 10.4 mph S16.7 kmh S 15.0 mph24.1 kmh 30.12 in1020.0 mb - 0.00 in0.0 mm 0.00 in0.0 mm
09:30 AM 47.4°F8.6°C 45.2°F7.3°C 92% 11.5 mph S18.5 kmh S 16.1 mph25.9 kmh 30.12 in1020.0 mb - 0.00 in0.0 mm 0.00 in0.0 mm
09:40 AM 47.6°F8.7°C 45.4°F7.4°C 92% 10.4 mph S16.7 kmh S 20.7 mph33.3 kmh 30.12 in1020.0 mb - 0.00 in0.0 mm 0.00 in0.0 mm
09:50 AM 47.8°F8.8°C 45.3°F7.4°C 91% 10.4 mph S16.7 kmh S 16.1 mph25.9 kmh 30.12 in1020.0 mb - 0.00 in0.0 mm 0.00 in0.0 mm
10:00 AM 48.0°F8.9°C 45.5°F7.5°C 91% 13.8 mph SSE22.2 kmh SSE 20.7 mph33.3 kmh 30.11 in1019.6 mb - 0.00 in0.0 mm 0.00 in0.0 mm
10:10 AM 48.0°F8.9°C 45.2°F7.3°C 90% 12.7 mph S20.4 kmh S 16.1 mph25.9 kmh 30.12 in1020.0 mb - 0.00 in0.0 mm 0.00 in0.0 mm
10:20 AM 48.1°F8.9°C 45.6°F7.6°C 91% 12.7 mph S20.4 kmh S 18.4 mph29.6 kmh 30.12 in1020.0 mb - 0.00 in0.0 mm 0.00 in0.0 mm
10:30 AM 48.2°F9.0°C 45.4°F7.4°C 90% 15.0 mph S24.1 kmh S 23.0 mph37.0 kmh 30.12 in1020.0 mb - 0.00 in0.0 mm 0.00 in0.0 mm
10:40 AM 48.3°F9.1°C 45.5°F7.5°C 90% 11.5 mph S18.5 kmh S 15.0 mph24.1 kmh 30.12 in1020.0 mb - 0.00 in0.0 mm 0.00 in0.0 mm
10:50 AM 48.3°F9.1°C 45.5°F7.5°C 90% 15.0 mph S24.1 kmh S 20.7 mph33.3 kmh 30.11 in1019.6 mb - 0.00 in0.0 mm 0.00 in0.0 mm
11:00 AM 48.4°F9.1°C 45.9°F7.7°C 91% 12.7 mph S20.4 kmh S 20.7 mph33.3 kmh 30.11 in1019.6 mb - 0.00 in0.0 mm 0.00 in0.0 mm
11:10 AM 48.5°F9.2°C 45.7°F7.6°C 90% 12.7 mph S20.4 kmh S 19.6 mph31.5 kmh 30.11 in1019.6 mb - 0.00 in0.0 mm 0.00 in0.0 mm
11:20 AM 48.6°F9.2°C 45.8°F7.7°C 90% 16.1 mph S25.9 kmh S 21.9 mph35.2 kmh 30.09 in1019.0 mb - 0.00 in0.0 mm 0.00 in0.0 mm
11:30 AM 48.7°F9.3°C 45.9°F7.7°C 90% 12.7 mph S20.4 kmh S 16.1 mph25.9 kmh 30.10 in1019.3 mb - 0.00 in0.0 mm 0.00 in0.0 mm
11:40 AM 48.8°F9.3°C 46.3°F7.9°C 91% 15.0 mph S24.1 kmh S 25.3 mph40.7 kmh 30.09 in1019.0 mb - 0.00 in0.0 mm 0.00 in0.0 mm
11:50 AM 48.8°F9.3°C 46.0°F7.8°C 90% 16.1 mph S25.9 kmh S 21.9 mph35.2 kmh 30.09 in1019.0 mb - 0.00 in0.0 mm 0.00 in0.0 mm
12:00 PM 49.0°F9.4°C 46.2°F7.9°C 90% 12.7 mph SSE20.4 kmh SSE 21.9 mph35.2 kmh 30.09 in1019.0 mb - 0.00 in0.0 mm 0.00 in0.0 mm
12:10 PM 49.0°F9.4°C 46.2°F7.9°C 90% 15.0 mph S24.1 kmh S 19.6 mph31.5 kmh 30.08 in1018.6 mb - 0.00 in0.0 mm 0.00 in0.0 mm
12:20 PM 49.1°F9.5°C 46.0°F7.8°C 89% 17.3 mph S27.8 kmh S 21.9 mph35.2 kmh 30.07 in1018.3 mb - 0.00 in0.0 mm 0.00 in0.0 mm
12:30 PM 49.1°F9.5°C 46.0°F7.8°C 89% 15.0 mph S24.1 kmh S 21.9 mph35.2 kmh 30.06 in1017.9 mb - 0.00 in0.0 mm 0.00 in0.0 mm
12:40 PM 49.1°F9.5°C 46.0°F7.8°C 89% 13.8 mph S22.2 kmh S 18.4 mph29.6 kmh 30.06 in1017.9 mb - 0.00 in0.0 mm 0.00 in0.0 mm
12:50 PM 49.1°F9.5°C 46.0°F7.8°C 89% 16.1 mph SSE25.9 kmh SSE 19.6 mph31.5 kmh 30.05 in1017.6 mb - 0.00 in0.0 mm 0.00 in0.0 mm
01:00 PM 49.1°F9.5°C 45.7°F7.6°C 88% 17.3 mph S27.8 kmh S 21.9 mph35.2 kmh 30.04 in1017.3 mb - 0.00 in0.0 mm 0.00 in0.0 mm
01:10 PM 49.1°F9.5°C 46.0°F7.8°C 89% 13.8 mph S22.2 kmh S 21.9 mph35.2 kmh 30.04 in1017.3 mb - 0.00 in0.0 mm 0.00 in0.0 mm
01:20 PM 49.1°F9.5°C 46.0°F7.8°C 89% 15.0 mph S24.1 kmh S 20.7 mph33.3 kmh 30.04 in1017.3 mb - 0.00 in0.0 mm 0.00 in0.0 mm
01:30 PM 49.1°F9.5°C 46.0°F7.8°C 89% 15.0 mph S24.1 kmh S 23.0 mph37.0 kmh 30.03 in1016.9 mb - 0.00 in0.0 mm 0.00 in0.0 mm
01:40 PM 49.1°F9.5°C 46.3°F7.9°C 90% 16.1 mph S25.9 kmh S 25.3 mph40.7 kmh 30.03 in1016.9 mb - 0.00 in0.0 mm 0.00 in0.0 mm
01:50 PM 49.0°F9.4°C 46.5°F8.1°C 91% 15.0 mph S24.1 kmh S 23.0 mph37.0 kmh 30.02 in1016.6 mb - 0.00 in0.0 mm 0.00 in0.0 mm
02:00 PM 49.0°F9.4°C 46.5°F8.1°C 91% 16.1 mph S25.9 kmh S 23.0 mph37.0 kmh 30.02 in1016.6 mb - 0.00 in0.0 mm 0.00 in0.0 mm
02:10 PM 49.0°F9.4°C 46.5°F8.1°C 91% 15.0 mph S24.1 kmh S 21.9 mph35.2 kmh 30.01 in1016.3 mb - 0.00 in0.0 mm 0.00 in0.0 mm
02:20 PM 49.0°F9.4°C 46.5°F8.1°C 91% 16.1 mph S25.9 kmh S 21.9 mph35.2 kmh 30.01 in1016.3 mb - 0.00 in0.0 mm 0.00 in0.0 mm
02:30 PM 48.9°F9.4°C 46.7°F8.2°C 92% 13.8 mph S22.2 kmh S 19.6 mph31.5 kmh 30.01 in1016.3 mb - 0.00 in0.0 mm 0.00 in0.0 mm
02:40 PM 48.9°F9.4°C 46.4°F8.0°C 91% 15.0 mph SSE24.1 kmh SSE 21.9 mph35.2 kmh 30.00 in1015.9 mb - 0.00 in0.0 mm 0.00 in0.0 mm
02:50 PM 48.9°F9.4°C 46.4°F8.0°C 91% 13.8 mph S22.2 kmh S 23.0 mph37.0 kmh 30.00 in1015.9 mb - 0.00 in0.0 mm 0.00 in0.0 mm
03:00 PM 48.8°F9.3°C 46.3°F7.9°C 91% 16.1 mph SSE25.9 kmh SSE 23.0 mph37.0 kmh 30.00 in1015.9 mb - 0.00 in0.0 mm 0.00 in0.0 mm
03:10 PM 48.7°F9.3°C 46.2°F7.9°C 91% 15.0 mph SSE24.1 kmh SSE 26.5 mph42.6 kmh 30.00 in1015.9 mb - 0.00 in0.0 mm 0.00 in0.0 mm
03:20 PM 48.7°F9.3°C 46.2°F7.9°C 91% 13.8 mph S22.2 kmh S 20.7 mph33.3 kmh 30.00 in1015.9 mb - 0.00 in0.0 mm 0.00 in0.0 mm
03:30 PM 48.7°F9.3°C 45.9°F7.7°C 90% 15.0 mph S24.1 kmh S 25.3 mph40.7 kmh 30.00 in1015.9 mb - 0.00 in0.0 mm 0.00 in0.0 mm
03:40 PM 48.7°F9.3°C 45.9°F7.7°C 90% 15.0 mph S24.1 kmh S 26.5 mph42.6 kmh 30.00 in1015.9 mb - 0.00 in0.0 mm 0.00 in0.0 mm
03:50 PM 48.7°F9.3°C 46.2°F7.9°C 91% 13.8 mph S22.2 kmh S 20.7 mph33.3 kmh 29.99 in1015.6 mb - 0.00 in0.0 mm 0.00 in0.0 mm
04:00 PM 48.7°F9.3°C 45.9°F7.7°C 90% 15.0 mph S24.1 kmh S 23.0 mph37.0 kmh 29.99 in1015.6 mb - 0.00 in0.0 mm 0.00 in0.0 mm
04:10 PM 48.8°F9.3°C 46.0°F7.8°C 90% 11.5 mph SSE18.5 kmh SSE 16.1 mph25.9 kmh 29.99 in1015.6 mb - 0.00 in0.0 mm 0.00 in0.0 mm
04:20 PM 48.7°F9.3°C 46.2°F7.9°C 91% 15.0 mph SSE24.1 kmh SSE 19.6 mph31.5 kmh 29.99 in1015.6 mb - 0.00 in0.0 mm 0.00 in0.0 mm
04:30 PM 48.6°F9.2°C 45.8°F7.7°C 90% 15.0 mph SSE24.1 kmh SSE 16.1 mph25.9 kmh 29.99 in1015.6 mb - 0.00 in0.0 mm 0.00 in0.0 mm
04:40 PM 48.6°F9.2°C 46.1°F7.8°C 91% 13.8 mph S22.2 kmh S 18.4 mph29.6 kmh 29.99 in1015.6 mb - 0.00 in0.0 mm 0.00 in0.0 mm
04:50 PM 48.6°F9.2°C 46.0°F7.8°C 91% 16.1 mph SSE25.9 kmh SSE 25.3 mph40.7 kmh 29.99 in1015.6 mb - 0.00 in0.0 mm 0.00 in0.0 mm
05:00 PM 48.6°F9.2°C 46.3°F7.9°C 92% 13.8 mph SE22.2 kmh SE 26.5 mph42.6 kmh 29.99 in1015.6 mb - 0.00 in0.0 mm 0.00 in0.0 mm
05:10 PM 48.4°F9.1°C 46.8°F8.2°C 94% 11.5 mph SSE18.5 kmh SSE 25.3 mph40.7 kmh 29.99 in1015.6 mb - 0.00 in0.0 mm 0.00 in0.0 mm
05:20 PM 48.3°F9.1°C 46.9°F8.3°C 95% 13.8 mph SSE22.2 kmh SSE 21.9 mph35.2 kmh 29.98 in1015.2 mb - 0.00 in0.0 mm 0.00 in0.0 mm
05:30 PM 48.3°F9.1°C 46.9°F8.3°C 95% 12.7 mph S20.4 kmh S 18.4 mph29.6 kmh 29.98 in1015.2 mb - 0.00 in0.0 mm 0.00 in0.0 mm
05:40 PM 48.3°F9.1°C 46.7°F8.2°C 94% 17.3 mph SSE27.8 kmh SSE 25.3 mph40.7 kmh 29.98 in1015.2 mb - 0.00 in0.0 mm 0.00 in0.0 mm
05:50 PM 48.4°F9.1°C 47.0°F8.3°C 95% 16.1 mph SSE25.9 kmh SSE 23.0 mph37.0 kmh 29.97 in1014.9 mb - 0.01 in0.3 mm 0.01 in0.3 mm
06:00 PM 47.7°F8.7°C 47.1°F8.4°C 98% 13.8 mph SSE22.2 kmh SSE 21.9 mph35.2 kmh 29.96 in1014.6 mb - 0.02 in0.5 mm 0.02 in0.5 mm
06:10 PM 47.0°F8.3°C 46.5°F8.1°C 98% 15.0 mph SSE24.1 kmh SSE 26.5 mph42.6 kmh 29.96 in1014.6 mb - 0.00 in0.0 mm 0.02 in0.5 mm
06:20 PM 46.9°F8.3°C 46.4°F8.0°C 98% 13.8 mph SSE22.2 kmh SSE 23.0 mph37.0 kmh 29.96 in1014.6 mb - 0.00 in0.0 mm 0.02 in0.5 mm
06:30 PM 46.9°F8.3°C 46.1°F7.8°C 97% 15.0 mph SSE24.1 kmh SSE 21.9 mph35.2 kmh 29.96 in1014.6 mb - 0.00 in0.0 mm 0.02 in0.5 mm
06:40 PM 47.2°F8.4°C 46.1°F7.8°C 96% 17.3 mph SSE27.8 kmh SSE 23.0 mph37.0 kmh 29.95 in1014.2 mb - 0.00 in0.0 mm 0.02 in0.5 mm
06:50 PM 47.6°F8.7°C 46.6°F8.1°C 96% 17.3 mph SSE27.8 kmh SSE 20.7 mph33.3 kmh 29.94 in1013.9 mb - 0.00 in0.0 mm 0.02 in0.5 mm
07:00 PM 48.1°F8.9°C 47.0°F8.3°C 96% 17.3 mph SSE27.8 kmh SSE 33.4 mph53.8 kmh 29.94 in1013.9 mb - 0.00 in0.0 mm 0.02 in0.5 mm
07:10 PM 48.4°F9.1°C 47.3°F8.5°C 96% 18.4 mph SSE29.6 kmh SSE 28.8 mph46.3 kmh 29.93 in1013.5 mb - 0.00 in0.0 mm 0.02 in0.5 mm
07:20 PM 48.5°F9.2°C 47.4°F8.6°C 96% 16.1 mph SSE25.9 kmh SSE 26.5 mph42.6 kmh 29.93 in1013.5 mb - 0.00 in0.0 mm 0.02 in0.5 mm
07:30 PM 48.7°F9.3°C 47.6°F8.7°C 96% 17.3 mph SSE27.8 kmh SSE 25.3 mph40.7 kmh 29.92 in1013.2 mb - 0.00 in0.0 mm 0.02 in0.5 mm
07:40 PM 48.7°F9.3°C 47.6°F8.7°C 96% 17.3 mph SSE27.8 kmh SSE 21.9 mph35.2 kmh 29.93 in1013.5 mb - 0.00 in0.0 mm 0.02 in0.5 mm
07:50 PM 48.8°F9.3°C 47.7°F8.7°C 96% 17.3 mph SSE27.8 kmh SSE 29.9 mph48.1 kmh 29.92 in1013.2 mb - 0.00 in0.0 mm 0.02 in0.5 mm
08:00 PM 48.9°F9.4°C 48.1°F8.9°C 97% 17.3 mph S27.8 kmh S 27.6 mph44.4 kmh 29.92 in1013.2 mb - 0.00 in0.0 mm 0.02 in0.5 mm
08:10 PM 49.0°F9.4°C 48.2°F9.0°C 97% 19.6 mph SSE31.5 kmh SSE 29.9 mph48.1 kmh 29.92 in1013.2 mb - 0.00 in0.0 mm 0.02 in0.5 mm
08:20 PM 49.0°F9.4°C 48.2°F9.0°C 97% 18.4 mph SSE29.6 kmh SSE 28.8 mph46.3 kmh 29.91 in1012.9 mb - 0.00 in0.0 mm 0.02 in0.5 mm
08:30 PM 49.1°F9.5°C 48.6°F9.2°C 98% 18.4 mph SSE29.6 kmh SSE 25.3 mph40.7 kmh 29.91 in1012.9 mb - 0.00 in0.0 mm 0.02 in0.5 mm
08:40 PM 49.2°F9.6°C 48.9°F9.4°C 99% 18.4 mph SE29.6 kmh SE 27.6 mph44.4 kmh 29.91 in1012.9 mb - 0.01 in0.3 mm 0.03 in0.8 mm
08:50 PM 49.2°F9.6°C 49.2°F9.6°C 100% 19.6 mph SSE31.5 kmh SSE 27.6 mph44.4 kmh 29.90 in1012.5 mb - 0.00 in0.0 mm 0.03 in0.8 mm
09:00 PM 49.3°F9.6°C 49.0°F9.4°C 99% 18.4 mph SSE29.6 kmh SSE 29.9 mph48.1 kmh 29.90 in1012.5 mb - 0.00 in0.0 mm 0.03 in0.8 mm
09:10 PM 49.4°F9.7°C 49.4°F9.7°C 100% 19.6 mph SSE31.5 kmh SSE 25.3 mph40.7 kmh 29.89 in1012.2 mb - 0.00 in0.0 mm 0.03 in0.8 mm
09:20 PM 49.6°F9.8°C 49.6°F9.8°C 100% 18.4 mph SSE29.6 kmh SSE 27.6 mph44.4 kmh 29.89 in1012.2 mb - 0.01 in0.3 mm 0.04 in1.0 mm
09:30 PM 49.7°F9.8°C 49.4°F9.7°C 99% 19.6 mph SSE31.5 kmh SSE 27.6 mph44.4 kmh 29.89 in1012.2 mb - 0.00 in0.0 mm 0.04 in1.0 mm
09:40 PM 49.8°F9.9°C 49.5°F9.7°C 99% 13.8 mph S22.2 kmh S 23.0 mph37.0 kmh 29.89 in1012.2 mb - 0.01 in0.3 mm 0.05 in1.3 mm
09:50 PM 49.7°F9.8°C 49.7°F9.8°C 100% 17.3 mph SSE27.8 kmh SSE 26.5 mph42.6 kmh 29.88 in1011.9 mb - 0.01 in0.3 mm 0.05 in1.3 mm
10:00 PM 49.6°F9.8°C 49.6°F9.8°C 100% 17.3 mph SE27.8 kmh SE 25.3 mph40.7 kmh 29.88 in1011.9 mb - 0.01 in0.3 mm 0.06 in1.5 mm
10:10 PM 49.5°F9.7°C 49.5°F9.7°C 100% 18.4 mph SSE29.6 kmh SSE 25.3 mph40.7 kmh 29.88 in1011.9 mb - 0.00 in0.0 mm 0.06 in1.5 mm
10:20 PM 48.9°F9.4°C 48.9°F9.4°C 100% 16.1 mph S25.9 kmh S 20.7 mph33.3 kmh 29.87 in1011.5 mb - 0.01 in0.3 mm 0.07 in1.8 mm
10:30 PM 48.7°F9.3°C 48.7°F9.3°C 100% 16.1 mph SSE25.9 kmh SSE 26.5 mph42.6 kmh 29.87 in1011.5 mb - 0.01 in0.3 mm 0.08 in2.0 mm
10:40 PM 48.6°F9.2°C 48.6°F9.2°C 100% 17.3 mph SSE27.8 kmh SSE 20.7 mph33.3 kmh 29.87 in1011.5 mb - 0.01 in0.3 mm 0.09 in2.3 mm
10:50 PM 48.5°F9.2°C 48.5°F9.2°C 100% 18.4 mph S29.6 kmh S 23.0 mph37.0 kmh 29.87 in1011.5 mb - 0.01 in0.3 mm 0.10 in2.5 mm
11:00 PM 48.4°F9.1°C 48.4°F9.1°C 100% 18.4 mph S29.6 kmh S 27.6 mph44.4 kmh 29.86 in1011.2 mb - 0.02 in0.5 mm 0.12 in3.0 mm
11:10 PM 48.3°F9.1°C 48.3°F9.1°C 100% 17.3 mph S27.8 kmh S 23.0 mph37.0 kmh 29.86 in1011.2 mb - 0.03 in0.8 mm 0.14 in3.6 mm
11:20 PM 48.3°F9.1°C 48.3°F9.1°C 100% 16.1 mph SSE25.9 kmh SSE 24.2 mph38.9 kmh 29.86 in1011.2 mb - 0.02 in0.5 mm 0.15 in3.8 mm
11:30 PM 48.3°F9.1°C 48.3°F9.1°C 100% 18.4 mph SSE29.6 kmh SSE 27.6 mph44.4 kmh 29.85 in1010.8 mb - 0.01 in0.3 mm 0.16 in4.1 mm
11:40 PM 48.3°F9.1°C 48.3°F9.1°C 100% 16.1 mph SSE25.9 kmh SSE 27.6 mph44.4 kmh 29.85 in1010.8 mb - 0.01 in0.3 mm 0.17 in4.3 mm
11:50 PM 48.3°F9.1°C 48.3°F9.1°C 100% 16.1 mph SSE25.9 kmh SSE 26.5 mph42.6 kmh 29.85 in1010.8 mb - 0.00 in0.0 mm 0.17 in4.3 mm